Time;durP1;ratioP1;P1;durP2;ratioP2;P2;SDS_P1;SDS_P2;PMS_P1;PMS_P2;Temp;Humidity;BMP_temperature;BMP_pressure;BME280_temperature;BME280_humidity;BME280_pressure;Samples;Min_cycle;Max_cycle;Signal;HPM_P1;HPM_P2
2023/01/08 00:00:46;;;;;;;;;5.00;4.50;;;;;13.10;71.85;100173.69;4950297;28;45591;-66
2023/01/08 00:03:12;;;;;;;;;4.25;4.25;;;;;13.08;72.20;100166.66;4942245;28;45263;-66
2023/01/08 00:05:38;;;;;;;;;5.50;5.00;;;;;13.09;72.19;100163.06;4942307;28;45348;-66
2023/01/08 00:08:04;;;;;;;;;5.25;5.25;;;;;13.08;72.18;100162.19;4945508;28;45299;-66
2023/01/08 00:10:29;;;;;;;;;4.75;4.75;;;;;13.06;72.23;100148.00;4949031;28;45787;-66
2023/01/08 00:12:55;;;;;;;;;7.00;5.00;;;;;13.07;72.42;100141.69;4942048;28;45516;-66
2023/01/08 00:15:21;;;;;;;;;4.00;4.00;;;;;13.07;72.33;100138.16;4941027;28;45552;-66
2023/01/08 00:17:46;;;;;;;;;5.50;4.50;;;;;13.12;72.14;100141.47;4941849;28;46206;-66
2023/01/08 00:20:12;;;;;;;;;3.75;3.75;;;;;13.11;72.07;100134.38;4956475;28;45386;-66
2023/01/08 00:22:38;;;;;;;;;6.75;4.75;;;;;13.09;72.02;100138.94;4938636;28;45354;-66
2023/01/08 00:25:03;;;;;;;;;4.00;4.00;;;;;13.11;72.16;100145.97;4941696;28;45409;-66
2023/01/08 00:27:29;;;;;;;;;3.75;3.75;;;;;13.10;72.14;100138.00;4941541;28;45488;-66
2023/01/08 00:29:54;;;;;;;;;2.75;2.75;;;;;13.06;72.04;100131.91;4941764;28;45251;-66
2023/01/08 00:32:20;;;;;;;;;4.00;4.00;;;;;13.08;72.10;100131.84;4956514;28;45346;-66
2023/01/08 00:34:45;;;;;;;;;3.25;3.25;;;;;13.12;72.14;100150.34;4942028;28;45323;-66
2023/01/08 00:37:11;;;;;;;;;3.25;3.25;;;;;13.12;72.07;100141.47;4947975;28;46074;-66
2023/01/08 00:39:36;;;;;;;;;4.00;4.00;;;;;13.09;72.03;100145.16;4956273;28;45338;-66
2023/01/08 00:42:01;;;;;;;;;6.25;4.25;;;;;13.07;71.78;100138.16;4941760;28;45579;-66
2023/01/08 00:44:26;;;;;;;;;4.25;4.25;;;;;13.11;71.93;100142.41;4941815;28;45487;-66
2023/01/08 00:46:52;;;;;;;;;5.25;3.75;;;;;13.10;71.74;100143.38;4928269;28;46116;-66
2023/01/08 00:49:17;;;;;;;;;3.75;3.75;;;;;13.04;71.64;100133.81;4940687;28;45385;-66
2023/01/08 00:51:43;;;;;;;;;3.00;3.00;;;;;13.05;71.82;100124.84;4941662;28;45327;-66
2023/01/08 00:54:10;;;;;;;;;8.50;4.00;;;;;13.03;71.85;100123.19;4941567;28;45462;-66
2023/01/08 00:56:35;;;;;;;;;5.50;4.50;;;;;13.05;72.01;100116.81;4941105;28;45482;-66
2023/01/08 00:59:00;;;;;;;;;5.25;5.25;;;;;13.00;71.89;100113.50;4950036;28;45499;-66
2023/01/08 01:01:26;;;;;;;;;5.75;3.75;;;;;13.06;71.80;100117.66;4944080;28;45590;-66
2023/01/08 01:03:51;;;;;;;;;6.50;4.50;;;;;13.06;71.73;100123.03;4941438;28;45341;-66
2023/01/08 01:06:16;;;;;;;;;4.00;4.00;;;;;13.04;71.47;100117.75;4944921;28;46544;-66
2023/01/08 01:08:43;;;;;;;;;4.00;4.00;;;;;13.03;71.50;100105.31;4957429;28;45389;-66
2023/01/08 01:11:17;;;;;;;;;4.00;3.00;;;;;13.07;71.64;100112.22;4943447;28;45542;-66
2023/01/08 01:13:42;;;;;;;;;5.00;5.00;;;;;13.02;71.56;100102.72;4956063;28;45483;-66
2023/01/08 01:16:07;;;;;;;;;5.25;3.75;;;;;13.04;71.32;100106.16;4940879;28;45480;-66
2023/01/08 01:18:33;;;;;;;;;3.75;2.75;;;;;13.01;71.51;100099.16;4941881;28;45425;-66
2023/01/08 01:20:58;;;;;;;;;4.00;4.00;;;;;13.01;71.38;100091.09;4942648;28;45376;-66
2023/01/08 01:23:24;;;;;;;;;3.25;3.00;;;;;13.05;71.35;100102.56;4939659;28;45517;-66
2023/01/08 01:25:49;;;;;;;;;5.00;5.00;;;;;13.07;71.16;100095.28;4940456;28;46155;-66
2023/01/08 01:28:15;;;;;;;;;4.00;4.00;;;;;13.07;71.05;100096.16;4941012;28;45318;-66
2023/01/08 01:30:41;;;;;;;;;3.00;3.00;;;;;13.08;71.01;100099.69;4940805;28;45373;-66
2023/01/08 01:33:06;;;;;;;;;4.25;3.25;;;;;13.03;71.13;100088.34;4941051;28;45425;-66
2023/01/08 01:35:31;;;;;;;;;3.00;2.25;;;;;13.03;71.06;100091.91;4955636;28;47433;-66
2023/01/08 01:37:57;;;;;;;;;3.00;3.00;;;;;13.03;70.97;100089.25;4961271;28;45727;-66
2023/01/08 01:40:22;;;;;;;;;3.00;3.00;;;;;13.00;70.83;100093.88;4940726;28;45283;-66
2023/01/08 01:42:47;;;;;;;;;4.75;3.00;;;;;13.00;70.86;100105.47;4940892;28;45403;-66
2023/01/08 01:45:26;;;;;;;;;3.25;3.25;;;;;12.97;70.85;100109.16;4937994;28;45403;-66
2023/01/08 01:48:07;;;;;;;;;2.75;2.75;;;;;12.97;71.04;100097.59;4932550;28;45559;-66
2023/01/08 01:50:40;;;;;;;;;3.00;3.00;;;;;13.01;70.82;100117.03;4940251;28;45309;-66
2023/01/08 01:53:21;;;;;;;;;3.50;3.00;;;;;12.97;70.59;100109.16;4940682;28;45314;-66
2023/01/08 01:55:47;;;;;;;;;1.25;1.00;;;;;12.95;70.50;100116.41;4939148;28;47461;-66
2023/01/08 01:58:16;;;;;;;;;2.00;2.00;;;;;12.94;70.74;100106.63;4942672;28;45422;-66
2023/01/08 02:00:43;;;;;;;;;3.00;3.00;;;;;12.90;70.64;100115.78;4949530;28;45462;-66
2023/01/08 02:03:10;;;;;;;;;2.25;2.00;;;;;12.86;70.56;100111.53;4940439;28;45422;-66
2023/01/08 02:05:50;;;;;;;;;2.00;2.00;;;;;12.87;70.87;100121.31;4940565;28;45436;-66
2023/01/08 02:08:51;;;;;;;;;2.50;2.50;;;;;12.88;70.63;100122.16;4971300;28;45347;-66
2023/01/08 02:11:28;;;;;;;;;2.00;2.00;;;;;12.85;70.65;100111.63;4938777;28;45417;-66
2023/01/08 02:14:10;;;;;;;;;4.50;3.00;;;;;12.87;70.37;100109.72;4940523;28;45410;-66
2023/01/08 02:16:48;;;;;;;;;3.75;3.50;;;;;12.90;70.57;100118.47;4929668;28;45517;-66
2023/01/08 02:19:35;;;;;;;;;1.75;1.25;;;;;12.86;70.55;100105.31;4942739;28;45387;-67
2023/01/08 02:22:12;;;;;;;;;1.75;1.75;;;;;12.88;70.54;100115.00;4937661;28;45925;-66
2023/01/08 02:24:53;;;;;;;;;2.50;2.00;;;;;12.80;70.18;100106.50;4940096;28;45247;-66
2023/01/08 02:27:19;;;;;;;;;4.00;2.00;;;;;12.83;70.52;100109.03;4940080;28;45338;-66
2023/01/08 02:29:46;;;;;;;;;3.00;3.00;;;;;12.85;70.42;100117.84;4955106;28;45373;-66
2023/01/08 02:32:12;;;;;;;;;2.00;2.00;;;;;12.88;70.70;100124.84;4940277;28;45331;-66
2023/01/08 02:34:37;;;;;;;;;3.00;2.00;;;;;12.83;70.56;100109.03;4940216;28;45339;-66
2023/01/08 02:37:03;;;;;;;;;3.00;2.75;;;;;12.82;70.70;100101.94;4944882;28;46207;-66
2023/01/08 02:40:05;;;;;;;;;2.50;2.50;;;;;12.93;70.75;100120.09;4943218;28;45354;-66
2023/01/08 02:42:52;;;;;;;;;2.50;2.00;;;;;12.92;70.68;100121.94;4933672;28;45503;-66
2023/01/08 02:45:27;;;;;;;;;2.75;2.75;;;;;12.94;70.69;100113.81;4939867;28;45498;-66
2023/01/08 02:48:02;;;;;;;;;2.00;2.00;;;;;12.95;70.61;100102.16;4948847;28;46422;-66
2023/01/08 02:50:34;;;;;;;;;4.25;2.50;;;;;12.95;70.67;100112.88;4942204;28;45531;-66
2023/01/08 02:53:12;;;;;;;;;1.75;1.75;;;;;12.94;70.44;100111.13;4943332;28;45339;-66
2023/01/08 02:55:40;;;;;;;;;1.00;1.00;;;;;12.86;70.51;100092.78;4943029;28;45464;-66
2023/01/08 02:58:06;;;;;;;;;3.00;2.00;;;;;12.89;70.57;100105.16;4944481;28;46276;-66
2023/01/08 03:00:32;;;;;;;;;2.75;2.00;;;;;12.81;70.63;100092.16;4953613;28;45511;-66
2023/01/08 03:03:10;;;;;;;;;1.50;1.00;;;;;12.87;70.87;100105.22;4943100;28;45393;-66
2023/01/08 03:05:39;;;;;;;;;2.00;0.25;;;;;12.87;70.60;100094.53;4943372;28;45353;-66
2023/01/08 03:08:05;;;;;;;;;4.00;2.50;;;;;12.85;70.49;100093.75;4955101;28;45523;-66
2023/01/08 03:10:31;;;;;;;;;3.00;2.00;;;;;12.85;70.71;100093.75;4943008;28;45452;-66
2023/01/08 03:13:17;;;;;;;;;2.00;2.00;;;;;12.89;70.77;100094.44;4942959;28;45453;-66
2023/01/08 03:15:48;;;;;;;;;1.00;1.00;;;;;12.91;70.64;100085.41;4942891;28;45357;-66
2023/01/08 03:18:19;;;;;;;;;4.00;1.75;;;;;12.91;70.59;100088.06;4942036;28;45347;-66
2023/01/08 03:20:48;;;;;;;;;2.00;1.00;;;;;12.86;70.71;100076.69;4944909;28;45559;-66
2023/01/08 03:23:15;;;;;;;;;1.75;1.75;;;;;12.77;70.60;100063.81;4942800;28;45496;-66
2023/01/08 03:25:44;;;;;;;;;3.00;1.75;;;;;12.78;70.78;100061.06;4942704;28;45448;-66
2023/01/08 03:28:16;;;;;;;;;1.50;1.00;;;;;12.84;70.78;100080.44;4942640;28;46135;-66
2023/01/08 03:30:43;;;;;;;;;1.25;1.25;;;;;12.82;70.78;100079.66;4942576;28;45356;-66
2023/01/08 03:33:12;;;;;;;;;1.00;0.75;;;;;12.83;70.96;100079.56;4942968;28;45397;-66
2023/01/08 03:35:41;;;;;;;;;2.75;1.25;;;;;12.82;70.84;100074.28;4942745;28;45256;-66
2023/01/08 03:38:28;;;;;;;;;0.25;0.25;;;;;12.80;70.88;100074.38;4961078;28;47710;-66
2023/01/08 03:40:58;;;;;;;;;1.00;1.00;;;;;12.83;70.74;100071.53;4942612;28;45537;-66
2023/01/08 03:43:24;;;;;;;;;1.00;1.00;;;;;12.84;70.47;100072.41;4942694;28;45303;-66
2023/01/08 03:45:55;;;;;;;;;1.00;1.00;;;;;12.83;70.59;100066.19;4934848;28;45567;-66
2023/01/08 03:48:22;;;;;;;;;1.75;1.75;;;;;12.80;70.59;100063.66;4936078;28;45632;-66
2023/01/08 03:50:48;;;;;;;;;1.00;1.00;;;;;12.78;70.65;100063.72;4942553;28;45546;-66
2023/01/08 03:53:13;;;;;;;;;1.00;1.00;;;;;12.79;70.70;100067.28;4957179;28;45435;-66
2023/01/08 03:55:39;;;;;;;;;0.25;0.25;;;;;12.76;70.48;100059.38;4942314;28;45458;-66
2023/01/08 03:58:04;;;;;;;;;1.75;1.00;;;;;12.78;70.57;100061.06;4943349;28;46156;-66
2023/01/08 04:00:29;;;;;;;;;1.00;1.00;;;;;12.83;70.64;100063.50;4952829;28;45388;-66
2023/01/08 04:02:55;;;;;;;;;1.50;1.50;;;;;12.85;70.37;100066.09;4942313;28;45569;-66
2023/01/08 04:05:20;;;;;;;;;0.50;0.50;;;;;12.83;70.53;100049.22;4942391;28;45394;-66
2023/01/08 04:07:45;;;;;;;;;1.50;1.00;;;;;12.78;70.48;100058.38;4953690;28;45520;-66
2023/01/08 04:10:11;;;;;;;;;0.25;0.25;;;;;12.77;70.52;100043.25;4950973;28;45498;-66
2023/01/08 04:12:36;;;;;;;;;1.75;1.00;;;;;12.79;70.57;100044.03;4942238;28;45370;-66
2023/01/08 04:15:02;;;;;;;;;2.25;1.00;;;;;12.83;70.38;100039.41;4957117;28;45550;-66
2023/01/08 04:17:27;;;;;;;;;3.00;1.25;;;;;12.81;70.28;100032.38;4941321;28;45484;-66
2023/01/08 04:19:53;;;;;;;;;0.00;0.00;;;;;12.79;70.57;100027.09;4945904;28;45440;-66
2023/01/08 04:22:18;;;;;;;;;1.00;1.00;;;;;12.79;70.38;100030.63;4941950;28;45497;-66
2023/01/08 04:24:43;;;;;;;;;1.00;1.00;;;;;12.84;70.46;100029.53;4941955;28;45431;-66
2023/01/08 04:27:09;;;;;;;;;1.25;1.00;;;;;12.78;70.30;100012.84;4941656;28;45346;-66
2023/01/08 04:29:34;;;;;;;;;0.50;0.50;;;;;12.86;70.11;100023.13;4942083;28;45542;-65
2023/01/08 04:32:00;;;;;;;;;1.00;1.00;;;;;12.84;70.17;100013.47;4941762;28;45267;-65
2023/01/08 04:34:25;;;;;;;;;1.00;1.00;;;;;12.89;69.96;100019.44;4941936;28;45287;-66
2023/01/08 04:36:50;;;;;;;;;1.00;1.00;;;;;12.90;70.06;100010.47;4946079;28;45800;-66
2023/01/08 04:39:16;;;;;;;;;3.00;0.75;;;;;12.84;70.13;100008.09;4941643;28;45299;-66
2023/01/08 04:41:41;;;;;;;;;1.50;1.50;;;;;12.87;69.89;100011.47;4941856;28;45721;-66
2023/01/08 04:44:06;;;;;;;;;1.00;1.00;;;;;12.78;70.20;100006.63;4941889;28;45371;-66
2023/01/08 04:46:31;;;;;;;;;1.00;1.00;;;;;12.76;69.97;99987.09;4928458;28;46127;-66
2023/01/08 04:48:57;;;;;;;;;2.00;1.00;;;;;12.81;70.27;99995.72;4940205;28;45299;-66
2023/01/08 04:51:22;;;;;;;;;3.00;1.00;;;;;12.81;70.11;99989.53;4950327;28;45430;-66
2023/01/08 04:53:48;;;;;;;;;1.00;1.00;;;;;12.84;70.19;100002.75;4940196;28;45541;-66
2023/01/08 04:56:13;;;;;;;;;3.00;1.25;;;;;12.75;69.77;99983.56;4941062;28;45492;-66
2023/01/08 04:58:39;;;;;;;;;2.00;1.00;;;;;12.80;69.98;99991.34;4947321;28;45352;-66
2023/01/08 05:01:25;;;;;;;;;2.25;2.00;;;;;12.82;70.05;99978.72;4946421;28;45238;-66
2023/01/08 05:03:59;;;;;;;;;1.00;1.00;;;;;12.81;70.13;99986.84;4940303;28;45560;-66
2023/01/08 05:06:26;;;;;;;;;0.50;0.25;;;;;12.76;70.26;99973.69;4941186;28;45469;-66
2023/01/08 05:08:52;;;;;;;;;1.50;1.50;;;;;12.81;70.29;99971.63;4942117;28;45458;-66
2023/01/08 05:11:17;;;;;;;;;1.00;1.00;;;;;12.84;70.12;99967.94;4942164;28;45384;-66
2023/01/08 05:13:43;;;;;;;;;2.25;1.00;;;;;12.83;70.23;99969.75;4941321;28;45334;-66
2023/01/08 05:16:08;;;;;;;;;1.50;1.00;;;;;12.86;70.26;99971.38;4940914;28;45381;-66
2023/01/08 05:18:33;;;;;;;;;0.50;0.50;;;;;12.85;70.27;99972.34;4941308;28;45445;-66
2023/01/08 05:21:01;;;;;;;;;0.75;0.75;;;;;12.81;70.49;99979.66;4942090;28;45402;-65
2023/01/08 05:23:26;;;;;;;;;2.00;0.00;;;;;12.79;70.62;99973.53;4940966;28;45304;-66
2023/01/08 05:25:51;;;;;;;;;1.00;1.00;;;;;12.76;70.48;99971.00;4940776;28;46122;-66
2023/01/08 05:28:17;;;;;;;;;0.00;0.00;;;;;12.71;70.75;99962.38;4940942;28;45308;-66
2023/01/08 05:30:42;;;;;;;;;1.25;1.00;;;;;12.76;70.71;99968.34;4941005;28;45342;-66
2023/01/08 05:33:07;;;;;;;;;1.00;1.00;;;;;12.69;70.96;99966.94;4941116;28;45313;-66
2023/01/08 05:35:33;;;;;;;;;0.25;0.25;;;;;12.65;71.02;99950.19;4940838;28;45518;-66
2023/01/08 05:37:59;;;;;;;;;0.00;0.00;;;;;12.66;71.21;99962.59;4940877;28;45313;-66
2023/01/08 05:40:25;;;;;;;;;0.00;0.00;;;;;12.66;71.16;99976.00;4940793;28;45465;-66
2023/01/08 05:42:50;;;;;;;;;0.75;0.75;;;;;12.59;71.17;99975.47;4940973;28;45382;-66
2023/01/08 05:45:15;;;;;;;;;0.00;0.00;;;;;12.59;71.98;100020.13;4937572;28;46110;-66
2023/01/08 05:47:41;;;;;;;;;4.25;1.00;;;;;12.51;70.99;100025.88;4929163;28;45373;-66
2023/01/08 05:50:07;;;;;;;;;0.00;0.00;;;;;12.48;70.94;100038.53;4943376;28;45458;-66
2023/01/08 05:52:32;;;;;;;;;1.00;0.00;;;;;12.45;70.88;100022.66;4940741;28;45474;-66
2023/01/08 05:54:58;;;;;;;;;0.00;0.00;;;;;12.38;70.58;100011.41;4940546;28;45403;-66
2023/01/08 05:57:24;;;;;;;;;0.75;0.00;;;;;12.38;69.91;100012.25;4940449;28;45628;-66
2023/01/08 05:59:49;;;;;;;;;1.00;0.00;;;;;12.37;70.35;100002.50;4952620;28;45253;-66
2023/01/08 06:02:15;;;;;;;;;0.50;0.00;;;;;12.31;69.98;100001.94;4940415;28;45314;-66
2023/01/08 06:04:40;;;;;;;;;0.00;0.00;;;;;12.25;69.64;99995.09;4940594;28;45306;-66
2023/01/08 06:07:05;;;;;;;;;1.00;0.00;;;;;12.20;69.45;99994.47;4940604;28;45341;-66
2023/01/08 06:09:31;;;;;;;;;0.00;0.00;;;;;12.17;69.57;99986.59;4941394;28;45476;-66
2023/01/08 06:11:57;;;;;;;;;0.00;0.00;;;;;12.17;69.57;99991.94;4955055;28;45560;-66
2023/01/08 06:14:22;;;;;;;;;0.00;0.00;;;;;12.09;69.56;99986.13;4943616;28;46379;-66
2023/01/08 06:16:47;;;;;;;;;0.75;0.00;;;;;12.06;69.61;99987.13;4942987;28;45298;-66
2023/01/08 06:19:13;;;;;;;;;0.00;0.00;;;;;11.99;69.86;99983.03;4950827;28;45533;-66
2023/01/08 06:21:38;;;;;;;;;0.00;0.00;;;;;11.99;69.99;99985.72;4944821;28;46284;-66
2023/01/08 06:24:04;;;;;;;;;1.00;0.00;;;;;11.96;70.17;99983.19;4943338;28;46169;-66
2023/01/08 06:26:29;;;;;;;;;1.00;0.00;;;;;11.98;69.90;99995.56;4943753;28;45460;-66
2023/01/08 06:28:55;;;;;;;;;0.50;0.00;;;;;12.00;69.90;99999.00;4942742;28;45626;-66
2023/01/08 06:31:20;;;;;;;;;0.00;0.00;;;;;11.93;70.05;99989.56;4942404;28;45394;-66
2023/01/08 06:33:45;;;;;;;;;0.00;0.00;;;;;11.95;69.92;99995.72;4942045;28;48448;-66
2023/01/08 06:36:11;;;;;;;;;0.00;0.00;;;;;11.94;69.87;99999.31;4942577;28;45397;-65
2023/01/08 06:38:36;;;;;;;;;0.00;0.00;;;;;11.90;70.14;99999.53;4942393;28;45512;-66
2023/01/08 06:41:03;;;;;;;;;0.00;0.00;;;;;11.90;69.91;100004.88;4941982;28;45589;-66
2023/01/08 06:43:29;;;;;;;;;0.00;0.00;;;;;11.86;69.91;100010.38;4940768;28;48208;-66
2023/01/08 06:45:57;;;;;;;;;0.00;0.00;;;;;11.82;70.23;99998.09;4935108;28;45402;-66
2023/01/08 06:48:23;;;;;;;;;0.00;0.00;;;;;11.85;70.24;100005.97;4942518;28;45544;-66
2023/01/08 06:50:48;;;;;;;;;0.00;0.00;;;;;11.82;69.92;99999.91;4942372;28;45491;-66
2023/01/08 06:53:14;;;;;;;;;0.00;0.00;;;;;11.76;69.86;99986.81;4942672;28;45291;-66
2023/01/08 06:55:39;;;;;;;;;2.00;0.00;;;;;11.80;70.43;100002.66;4943332;28;45398;-66
2023/01/08 06:58:04;;;;;;;;;0.00;0.00;;;;;11.75;70.32;99994.00;4944537;28;45481;-66
2023/01/08 07:00:30;;;;;;;;;0.00;0.00;;;;;11.80;70.67;99999.13;4954102;28;45398;-66
2023/01/08 07:02:55;;;;;;;;;0.00;0.00;;;;;11.79;70.18;100005.41;4940374;28;45698;-65
2023/01/08 07:05:21;;;;;;;;;1.00;0.00;;;;;11.73;70.20;99984.28;4943243;28;45394;-66
2023/01/08 07:07:46;;;;;;;;;0.00;0.00;;;;;11.75;70.50;99998.47;4943220;28;45516;-66
2023/01/08 07:10:12;;;;;;;;;0.00;0.00;;;;;11.75;70.60;99990.47;4941991;28;45751;-66
2023/01/08 07:12:37;;;;;;;;;1.00;0.00;;;;;11.78;70.53;100001.88;4942825;28;45650;-66
2023/01/08 07:15:03;;;;;;;;;0.00;0.00;;;;;11.76;70.59;99998.41;4943145;28;45418;-66
2023/01/08 07:17:33;;;;;;;;;0.50;0.00;;;;;11.74;70.54;99994.06;4940642;28;45452;-66
2023/01/08 07:19:59;;;;;;;;;3.00;1.50;;;;;11.70;71.03;99998.69;4943203;28;45331;-66
2023/01/08 07:22:24;;;;;;;;;1.75;0.00;;;;;11.67;71.13;99994.34;4939613;28;45376;-63
2023/01/08 07:24:53;;;;;;;;;0.00;0.00;;;;;11.60;71.01;99987.59;4940853;28;45547;-65
2023/01/08 07:27:18;;;;;;;;;0.00;0.00;;;;;11.61;70.98;99985.75;4942888;28;45429;-65
2023/01/08 07:29:43;;;;;;;;;1.00;1.00;;;;;11.64;71.25;99993.63;4938084;28;45498;-65
2023/01/08 07:32:09;;;;;;;;;0.00;0.00;;;;;11.59;71.37;99984.97;4942255;28;46178;-65
2023/01/08 07:34:35;;;;;;;;;0.00;0.00;;;;;11.61;71.47;99994.66;4942484;28;45329;-66
2023/01/08 07:37:01;;;;;;;;;0.00;0.00;;;;;11.60;71.29;100000.09;4942706;28;45510;-65
2023/01/08 07:39:26;;;;;;;;;0.00;0.00;;;;;11.55;71.53;99988.75;4941467;28;45500;-65
2023/01/08 07:41:51;;;;;;;;;1.00;0.00;;;;;11.58;71.85;100000.16;4939686;28;48176;-65
2023/01/08 07:44:16;;;;;;;;;0.00;0.00;;;;;11.59;71.92;100001.03;4941152;28;45503;-65
2023/01/08 07:46:42;;;;;;;;;0.50;0.50;;;;;11.59;71.95;99991.19;4944214;28;45476;-65
2023/01/08 07:49:07;;;;;;;;;0.00;0.00;;;;;11.59;71.88;99991.19;4943321;28;45503;-66
2023/01/08 07:51:33;;;;;;;;;0.00;0.00;;;;;11.54;71.83;99977.19;4940808;28;45456;-65
2023/01/08 07:53:58;;;;;;;;;1.00;1.00;;;;;11.58;72.01;99988.63;4940058;28;46922;-65
2023/01/08 07:56:24;;;;;;;;;1.00;1.00;;;;;11.58;71.77;99985.94;4934032;28;47019;-67
2023/01/08 07:58:50;;;;;;;;;1.25;1.25;;;;;11.56;72.33;99977.09;4955377;28;45488;-66
2023/01/08 08:01:15;;;;;;;;;2.00;0.25;;;;;11.59;72.50;99979.63;4939376;28;45513;-67
2023/01/08 08:03:40;;;;;;;;;0.00;0.00;;;;;11.59;72.52;99979.63;4940362;28;45404;-66
2023/01/08 08:06:07;;;;;;;;;0.00;0.00;;;;;11.62;72.19;99984.84;4938260;28;45449;-66
2023/01/08 08:08:33;;;;;;;;;0.50;0.25;;;;;11.61;72.20;99975.97;4938823;28;45438;-65
2023/01/08 08:10:58;;;;;;;;;0.00;0.00;;;;;11.62;72.19;99982.16;4958193;28;47504;-66
2023/01/08 08:13:24;;;;;;;;;1.00;1.00;;;;;11.58;72.45;99972.56;4934747;28;45402;-66
2023/01/08 08:15:49;;;;;;;;;0.00;0.00;;;;;11.59;72.57;99976.97;4937764;28;45627;-66
2023/01/08 08:18:14;;;;;;;;;1.00;1.00;;;;;11.61;72.88;99980.41;4939769;28;45675;-66
2023/01/08 08:20:40;;;;;;;;;1.75;0.75;;;;;11.65;72.90;99977.53;4945389;28;45524;-66
2023/01/08 08:23:08;;;;;;;;;0.00;0.00;;;;;11.67;72.70;99966.75;4940306;28;45276;-67
2023/01/08 08:25:35;;;;;;;;;1.50;0.00;;;;;11.61;73.05;99954.56;4941072;28;45496;-66
2023/01/08 08:28:01;;;;;;;;;0.75;0.75;;;;;11.67;72.74;99969.44;4939730;28;45858;-66
2023/01/08 08:30:28;;;;;;;;;1.00;1.00;;;;;11.70;72.72;99955.06;4941455;28;45334;-66
2023/01/08 08:32:56;;;;;;;;;1.25;1.00;;;;;11.70;73.09;99953.25;4941584;28;45681;-66
2023/01/08 08:35:22;;;;;;;;;2.00;0.50;;;;;11.75;72.83;99947.69;4939419;28;45388;-66
2023/01/08 08:37:47;;;;;;;;;0.00;0.00;;;;;11.74;72.92;99951.28;4953463;28;45331;-66
2023/01/08 08:40:13;;;;;;;;;0.00;0.00;;;;;11.75;73.20;99936.97;4939599;28;45507;-66
2023/01/08 08:42:38;;;;;;;;;0.50;0.50;;;;;11.70;73.00;99945.22;4939250;28;45697;-66
2023/01/08 08:45:04;;;;;;;;;2.00;1.00;;;;;11.77;73.04;99943.13;4937082;28;45600;-66
2023/01/08 08:47:29;;;;;;;;;0.75;0.75;;;;;11.79;72.76;99934.06;4941294;28;45266;-66
2023/01/08 08:49:54;;;;;;;;;0.00;0.00;;;;;11.75;72.86;99931.63;4941433;28;45413;-66
2023/01/08 08:52:20;;;;;;;;;1.00;0.00;;;;;11.75;73.26;99936.97;4941608;28;45612;-66
2023/01/08 08:54:45;;;;;;;;;0.00;0.00;;;;;11.78;72.90;99926.13;4941311;28;45358;-66
2023/01/08 08:57:10;;;;;;;;;0.50;0.50;;;;;11.84;72.81;99931.16;4923951;28;45498;-66
2023/01/08 08:59:36;;;;;;;;;0.25;0.25;;;;;11.84;72.76;99932.03;4947705;28;45464;-66
2023/01/08 09:02:02;;;;;;;;;2.00;0.25;;;;;11.85;72.73;99932.91;4938144;28;45486;-66
2023/01/08 09:04:31;;;;;;;;;0.00;0.00;;;;;11.84;72.45;99934.72;4935550;28;45587;-66
2023/01/08 09:06:57;;;;;;;;;0.00;0.00;;;;;11.77;72.28;99929.75;4942349;28;45484;-66
2023/01/08 09:09:22;;;;;;;;;0.50;0.00;;;;;11.79;72.51;99928.72;4941948;28;46039;-66
2023/01/08 09:11:48;;;;;;;;;0.75;0.75;;;;;11.79;72.57;99928.72;4939510;28;45543;-66
2023/01/08 09:14:13;;;;;;;;;0.00;0.00;;;;;11.80;72.65;99933.13;4940280;28;45279;-65
2023/01/08 09:16:39;;;;;;;;;0.00;0.00;;;;;11.76;72.59;99939.59;4940267;28;45318;-66
2023/01/08 09:19:05;;;;;;;;;0.00;0.00;;;;;11.78;72.28;99947.53;4958789;28;46170;-66
2023/01/08 09:21:30;;;;;;;;;1.00;0.00;;;;;11.78;72.63;99939.50;4934339;28;45570;-66
2023/01/08 09:23:56;;;;;;;;;0.50;0.00;;;;;11.70;72.47;99934.53;4940967;28;45360;-66
2023/01/08 09:26:21;;;;;;;;;0.75;0.00;;;;;11.74;72.56;99935.25;4941113;28;45382;-66
2023/01/08 09:28:46;;;;;;;;;0.00;0.00;;;;;11.76;72.52;99942.25;4955749;28;47788;-66
2023/01/08 09:31:14;;;;;;;;;1.00;0.00;;;;;11.74;72.28;99936.09;4936866;28;45549;-66
2023/01/08 09:33:40;;;;;;;;;0.00;0.00;;;;;11.76;72.51;99920.88;4936356;28;45410;-66
2023/01/08 09:36:10;;;;;;;;;0.25;0.25;;;;;11.84;72.24;99937.41;4944141;28;45361;-67
2023/01/08 09:38:35;;;;;;;;;2.00;0.00;;;;;11.82;71.79;99925.88;4942679;28;45438;-67
2023/01/08 09:41:04;;;;;;;;;0.00;0.00;;;;;11.80;72.11;99934.94;4939235;28;45429;-67
2023/01/08 09:43:33;;;;;;;;;1.00;1.00;;;;;11.75;71.97;99935.16;4939146;28;45342;-68
2023/01/08 09:46:03;;;;;;;;;0.00;0.00;;;;;11.77;72.17;99946.63;4947876;28;45295;-67
2023/01/08 09:48:31;;;;;;;;;0.00;0.00;;;;;11.76;72.18;99936.91;4939670;28;46100;-67
2023/01/08 09:50:57;;;;;;;;;1.00;0.00;;;;;11.82;72.08;99939.25;4940642;28;45406;-68
2023/01/08 09:53:23;;;;;;;;;3.25;0.50;;;;;11.79;72.14;99935.88;4930304;28;45243;-68
2023/01/08 09:55:59;;;;;;;;;0.00;0.00;;;;;11.86;71.84;99947.97;4940609;28;45380;-68
2023/01/08 09:58:47;;;;;;;;;0.50;0.00;;;;;11.87;71.57;99942.56;4943675;28;45350;-68
2023/01/08 10:01:15;;;;;;;;;0.00;0.00;;;;;11.81;72.00;99940.22;4944570;28;45754;-68
2023/01/08 10:03:52;;;;;;;;;0.75;0.00;;;;;11.87;71.63;99945.22;4937663;28;45488;-69
2023/01/08 10:06:18;;;;;;;;;1.00;1.00;;;;;11.86;71.75;99942.63;4940418;28;45445;-67
2023/01/08 10:08:44;;;;;;;;;2.00;0.00;;;;;11.86;71.99;99940.84;4949592;28;45983;-68
2023/01/08 10:11:11;;;;;;;;;0.00;0.00;;;;;11.77;72.01;99925.25;4951276;28;46112;-70
2023/01/08 10:13:39;;;;;;;;;0.75;0.00;;;;;11.79;71.85;99931.38;4939723;28;46399;-69
2023/01/08 10:16:08;;;;;;;;;1.25;0.00;;;;;11.83;72.05;99932.13;4939353;28;45466;-71
2023/01/08 10:18:34;;;;;;;;;0.00;0.00;;;;;11.83;71.90;99921.44;4937640;28;48161;-70
2023/01/08 10:20:59;;;;;;;;;1.00;0.25;;;;;11.89;71.81;99926.44;4938450;28;47284;-67
2023/01/08 10:23:25;;;;;;;;;0.00;0.00;;;;;11.86;71.84;99923.91;4935441;28;45683;-71
2023/01/08 10:25:51;;;;;;;;;3.00;1.00;;;;;11.96;71.91;99933.25;4952870;28;45409;-71
2023/01/08 10:28:34;;;;;;;;;2.00;1.00;;;;;11.96;71.69;99919.88;4952887;28;48184;-71
2023/01/08 10:31:14;;;;;;;;;2.00;1.75;;;;;12.03;71.72;99918.63;4936268;28;45417;-71
2023/01/08 10:33:43;;;;;;;;;0.50;0.00;;;;;12.00;71.59;99913.41;4933533;28;45536;-71
2023/01/08 10:36:13;;;;;;;;;2.50;0.00;;;;;11.99;71.56;99908.16;4936780;28;45359;-70
2023/01/08 10:38:47;;;;;;;;;2.00;1.00;;;;;12.07;71.44;99913.97;4955282;28;47336;-71
2023/01/08 10:41:13;;;;;;;;;2.00;0.25;;;;;12.07;71.67;99908.63;4939839;28;45406;-71
2023/01/08 10:43:56;;;;;;;;;1.50;1.00;;;;;12.15;71.60;99908.22;4940932;28;45728;-71
2023/01/08 10:46:31;;;;;;;;;0.25;0.25;;;;;12.17;71.60;99909.88;4952868;28;46222;-73
2023/01/08 10:48:59;;;;;;;;;0.00;0.00;;;;;12.16;71.25;99902.81;4938317;28;45742;-73
2023/01/08 10:51:28;;;;;;;;;1.75;0.00;;;;;12.17;70.88;99887.59;4943595;28;45550;-74
2023/01/08 10:53:57;;;;;;;;;1.50;0.00;;;;;12.20;71.02;99892.81;4939083;28;45605;-76
2023/01/08 10:56:27;;;;;;;;;0.50;0.00;;;;;12.24;70.70;99902.38;4939297;28;45547;-74
2023/01/08 10:58:54;;;;;;;;;1.00;1.00;;;;;12.25;70.76;99895.25;4954549;28;48252;-74
2023/01/08 11:01:23;;;;;;;;;2.50;0.50;;;;;12.23;70.41;99893.50;4955375;28;45621;-73
2023/01/08 11:04:03;;;;;;;;;2.00;0.00;;;;;12.19;70.68;99888.38;4956905;28;45398;-73
2023/01/08 11:06:31;;;;;;;;;3.50;0.75;;;;;12.29;70.09;99894.13;4941703;28;45342;-73
2023/01/08 11:08:58;;;;;;;;;2.00;0.00;;;;;12.23;69.98;99872.09;4942441;28;47294;-73
2023/01/08 11:11:34;;;;;;;;;2.25;0.00;;;;;12.27;70.20;99874.63;4935753;28;46641;-75
2023/01/08 11:14:03;;;;;;;;;2.00;0.75;;;;;12.32;70.29;99872.56;4937049;28;45809;-76
2023/01/08 11:16:38;;;;;;;;;0.75;0.75;;;;;12.29;70.37;99860.19;4928629;28;45616;-74
2023/01/08 11:19:13;;;;;;;;;1.25;1.00;;;;;12.33;70.09;99868.91;4956234;28;47029;-74
2023/01/08 11:21:38;;;;;;;;;2.00;1.00;;;;;12.29;69.73;99851.31;4938116;28;46001;-73
2023/01/08 11:24:23;;;;;;;;;0.00;0.00;;;;;12.38;69.66;99861.53;4936922;28;45527;-73
2023/01/08 11:27:19;;;;;;;;;0.75;0.00;;;;;12.32;69.46;99846.66;4931801;28;45456;-72
2023/01/08 11:29:51;;;;;;;;;0.25;0.25;;;;;12.41;68.81;99845.28;4938221;28;46699;-72
2023/01/08 11:32:53;;;;;;;;;3.75;2.00;;;;;12.41;68.86;99837.25;4937209;28;45622;-73